Kisakata, Japan
Current Conditions -  °F | °C
As of 9:00 PM on Monday 20 Oct 2014 (Local Time) from RJSY Reporting Station
Light Rain Light Rain  
Wind Chill: 14°   Ceiling: 10000
Heat Index: 14°   Visibility: 6mi
Dew Point: 12°   Wind: 7mph
Humidity: 88%   Direction: 80°E
Pressure: 30.12"   Gusts: NA
Location:  39.22°N, 139.9°E
Report Text: RJSY 201200Z 08006KT 9999 -RA FEW040 OVC100 14/12 Q1020
Loading
Personal Weather Stations






























Interactive Weather Map
Tropical Storm Tracking
New forecast layout! Learn more

10-Day Weather Forecast

Advertisements
Track Severe Weather on mobile